sensor_id;sensor_type;location;lat;lon;timestamp;pressure;altitude;pressure_sealevel;temperature
64624;BMP280;51031;50.912;9.242;2022-07-15T00:00:10;99523.13;;;26.42
64624;BMP280;51031;50.912;9.242;2022-07-15T00:00:26;99527.66;;;26.41
64624;BMP280;51031;50.912;9.242;2022-07-15T00:00:42;99535.88;;;26.40
64624;BMP280;51031;50.912;9.242;2022-07-15T00:00:59;99526.28;;;26.37
64624;BMP280;51031;50.912;9.242;2022-07-15T00:01:14;99528.16;;;26.37
64624;BMP280;51031;50.912;9.242;2022-07-15T00:01:30;99524.63;;;26.36
64624;BMP280;51031;50.912;9.242;2022-07-15T00:01:46;99520.28;;;26.35
64624;BMP280;51031;50.912;9.242;2022-07-15T00:02:02;99529.34;;;26.34
64624;BMP280;51031;50.912;9.242;2022-07-15T00:02:18;99531.16;;;26.34
64624;BMP280;51031;50.912;9.242;2022-07-15T00:02:34;99531.16;;;26.34
64624;BMP280;51031;50.912;9.242;2022-07-15T00:02:50;99534.88;;;26.33
64624;BMP280;51031;50.912;9.242;2022-07-15T00:03:06;99537.75;;;26.31
64624;BMP280;51031;50.912;9.242;2022-07-15T00:03:22;99532.53;;;26.30
64624;BMP280;51031;50.912;9.242;2022-07-15T00:03:38;99535.22;;;26.30
64624;BMP280;51031;50.912;9.242;2022-07-15T00:03:54;99522.78;;;26.29
64624;BMP280;51031;50.912;9.242;2022-07-15T00:04:09;99535.38;;;26.28
64624;BMP280;51031;50.912;9.242;2022-07-15T00:04:27;99530.00;;;26.28
64624;BMP280;51031;50.912;9.242;2022-07-15T00:04:43;99537.25;;;26.28
64624;BMP280;51031;50.912;9.242;2022-07-15T00:04:59;99537.25;;;26.28
64624;BMP280;51031;50.912;9.242;2022-07-15T00:05:15;99539.25;;;26.26
64624;BMP280;51031;50.912;9.242;2022-07-15T00:05:31;99539.25;;;26.26
64624;BMP280;51031;50.912;9.242;2022-07-15T00:05:48;99538.41;;;26.25
64624;BMP280;51031;50.912;9.242;2022-07-15T00:06:04;99539.56;;;26.23
64624;BMP280;51031;50.912;9.242;2022-07-15T00:06:19;99541.28;;;26.24
64624;BMP280;51031;50.912;9.242;2022-07-15T00:06:35;99539.56;;;26.23
64624;BMP280;51031;50.912;9.242;2022-07-15T00:06:51;99532.34;;;26.23
64624;BMP280;51031;50.912;9.242;2022-07-15T00:07:07;99539.56;;;26.23
64624;BMP280;51031;50.912;9.242;2022-07-15T00:07:23;99537.91;;;26.22
64624;BMP280;51031;50.912;9.242;2022-07-15T00:07:40;99541.28;;;26.24
64624;BMP280;51031;50.912;9.242;2022-07-15T00:07:55;99534.19;;;26.23
64624;BMP280;51031;50.912;9.242;2022-07-15T00:08:14;99540.41;;;26.23
64624;BMP280;51031;50.912;9.242;2022-07-15T00:08:30;99543.97;;;26.24
64624;BMP280;51031;50.912;9.242;2022-07-15T00:08:46;99542.94;;;26.25
64624;BMP280;51031;50.912;9.242;2022-07-15T00:09:02;99537.56;;;26.25
64624;BMP280;51031;50.912;9.242;2022-07-15T00:09:18;99537.56;;;26.25
64624;BMP280;51031;50.912;9.242;2022-07-15T00:09:34;99541.94;;;26.26
64624;BMP280;51031;50.912;9.242;2022-07-15T00:10:09;99537.41;;;26.26
64624;BMP280;51031;50.912;9.242;2022-07-15T00:10:31;99541.78;;;26.27
64624;BMP280;51031;50.912;9.242;2022-07-15T00:10:47;99538.22;;;26.27
64624;BMP280;51031;50.912;9.242;2022-07-15T00:11:03;99541.78;;;26.27
64624;BMP280;51031;50.912;9.242;2022-07-15T00:11:19;99542.63;;;26.28
64624;BMP280;51031;50.912;9.242;2022-07-15T00:11:35;99533.53;;;26.29
64624;BMP280;51031;50.912;9.242;2022-07-15T00:11:51;99536.22;;;26.29
64624;BMP280;51031;50.912;9.242;2022-07-15T00:12:07;99536.22;;;26.29
64624;BMP280;51031;50.912;9.242;2022-07-15T00:12:22;99539.75;;;26.29
64624;BMP280;51031;50.912;9.242;2022-07-15T00:12:40;99541.59;;;26.29
64624;BMP280;51031;50.912;9.242;2022-07-15T00:12:58;99541.59;;;26.29
64624;BMP280;51031;50.912;9.242;2022-07-15T00:13:15;99538.91;;;26.29
64624;BMP280;51031;50.912;9.242;2022-07-15T00:13:30;99542.63;;;26.28
64624;BMP280;51031;50.912;9.242;2022-07-15T00:13:47;99534.56;;;26.28
64624;BMP280;51031;50.912;9.242;2022-07-15T00:14:03;99535.38;;;26.28
64624;BMP280;51031;50.912;9.242;2022-07-15T00:14:19;99538.22;;;26.27
64624;BMP280;51031;50.912;9.242;2022-07-15T00:14:35;99539.09;;;26.27
64624;BMP280;51031;50.912;9.242;2022-07-15T00:14:51;99537.41;;;26.26
64624;BMP280;51031;50.912;9.242;2022-07-15T00:15:08;99542.94;;;26.25
64624;BMP280;51031;50.912;9.242;2022-07-15T00:15:26;99536.75;;;26.24
64624;BMP280;51031;50.912;9.242;2022-07-15T00:15:42;99535.72;;;26.25
64624;BMP280;51031;50.912;9.242;2022-07-15T00:15:59;99539.44;;;26.24
64624;BMP280;51031;50.912;9.242;2022-07-15T00:16:14;99535.91;;;26.24
64624;BMP280;51031;50.912;9.242;2022-07-15T00:16:31;99539.56;;;26.23
64624;BMP280;51031;50.912;9.242;2022-07-15T00:16:47;99537.06;;;26.21
64624;BMP280;51031;50.912;9.242;2022-07-15T00:17:03;99536.22;;;26.21
64624;BMP280;51031;50.912;9.242;2022-07-15T00:17:19;99536.22;;;26.21
64624;BMP280;51031;50.912;9.242;2022-07-15T00:17:39;99537.22;;;26.20
64624;BMP280;51031;50.912;9.242;2022-07-15T00:17:55;99534.53;;;26.20
64624;BMP280;51031;50.912;9.242;2022-07-15T00:18:13;99536.38;;;26.19
64624;BMP280;51031;50.912;9.242;2022-07-15T00:18:29;99534.72;;;26.18
64624;BMP280;51031;50.912;9.242;2022-07-15T00:18:45;99536.56;;;26.18
64624;BMP280;51031;50.912;9.242;2022-07-15T00:19:01;99533.88;;;26.18
64624;BMP280;51031;50.912;9.242;2022-07-15T00:19:16;99536.56;;;26.18
64624;BMP280;51031;50.912;9.242;2022-07-15T00:19:34;99532.22;;;26.17
64624;BMP280;51031;50.912;9.242;2022-07-15T00:19:50;99534.91;;;26.17
64624;BMP280;51031;50.912;9.242;2022-07-15T00:20:08;99527.81;;;26.16
64624;BMP280;51031;50.912;9.242;2022-07-15T00:20:25;99537.59;;;26.17
64624;BMP280;51031;50.912;9.242;2022-07-15T00:20:42;99538.56;;;26.16
64624;BMP280;51031;50.912;9.242;2022-07-15T00:20:57;99527.81;;;26.16
64624;BMP280;51031;50.912;9.242;2022-07-15T00:21:14;99535.03;;;26.16
64624;BMP280;51031;50.912;9.242;2022-07-15T00:21:30;99544.78;;;26.17
64624;BMP280;51031;50.912;9.242;2022-07-15T00:21:46;99533.19;;;26.16
64624;BMP280;51031;50.912;9.242;2022-07-15T00:22:03;99529.66;;;26.16
64624;BMP280;51031;50.912;9.242;2022-07-15T00:22:19;99539.59;;;26.15
64624;BMP280;51031;50.912;9.242;2022-07-15T00:22:35;99531.53;;;26.15
64624;BMP280;51031;50.912;9.242;2022-07-15T00:22:51;99537.72;;;26.16
64624;BMP280;51031;50.912;9.242;2022-07-15T00:23:08;99536.91;;;26.15
64624;BMP280;51031;50.912;9.242;2022-07-15T00:23:23;99539.41;;;26.17
64624;BMP280;51031;50.912;9.242;2022-07-15T00:23:39;99532.34;;;26.16
64624;BMP280;51031;50.912;9.242;2022-07-15T00:23:58;99535.03;;;26.16
64624;BMP280;51031;50.912;9.242;2022-07-15T00:24:14;99531.53;;;26.15
64624;BMP280;51031;50.912;9.242;2022-07-15T00:24:31;99532.34;;;26.16
64624;BMP280;51031;50.912;9.242;2022-07-15T00:24:47;99535.88;;;26.16
64624;BMP280;51031;50.912;9.242;2022-07-15T00:25:03;99528.00;;;26.15
64624;BMP280;51031;50.912;9.242;2022-07-15T00:25:21;99545.97;;;26.14
64624;BMP280;51031;50.912;9.242;2022-07-15T00:25:36;99532.53;;;26.14
64624;BMP280;51031;50.912;9.242;2022-07-15T00:25:52;99535.22;;;26.14
64624;BMP280;51031;50.912;9.242;2022-07-15T00:26:08;99528.16;;;26.13
64624;BMP280;51031;50.912;9.242;2022-07-15T00:26:24;99538.91;;;26.13
64624;BMP280;51031;50.912;9.242;2022-07-15T00:26:41;99539.75;;;26.14
64624;BMP280;51031;50.912;9.242;2022-07-15T00:26:57;99533.53;;;26.13
64624;BMP280;51031;50.912;9.242;2022-07-15T00:27:13;99531.84;;;26.12
64624;BMP280;51031;50.912;9.242;2022-07-15T00:27:29;99538.06;;;26.13
64624;BMP280;51031;50.912;9.242;2022-07-15T00:27:53;99542.59;;;26.12
64624;BMP280;51031;50.912;9.242;2022-07-15T00:28:09;99539.91;;;26.12
64624;BMP280;51031;50.912;9.242;2022-07-15T00:28:26;99533.53;;;26.13
64624;BMP280;51031;50.912;9.242;2022-07-15T00:28:46;99538.06;;;26.13
64624;BMP280;51031;50.912;9.242;2022-07-15T00:29:02;99532.69;;;26.13
64624;BMP280;51031;50.912;9.242;2022-07-15T00:29:18;99532.69;;;26.13
64624;BMP280;51031;50.912;9.242;2022-07-15T00:29:34;99533.72;;;26.12
64624;BMP280;51031;50.912;9.242;2022-07-15T00:29:50;99531.69;;;26.14
64624;BMP280;51031;50.912;9.242;2022-07-15T00:30:07;99532.88;;;26.11
64624;BMP280;51031;50.912;9.242;2022-07-15T00:30:28;99537.22;;;26.12
64624;BMP280;51031;50.912;9.242;2022-07-15T00:30:45;99532.03;;;26.11
64624;BMP280;51031;50.912;9.242;2022-07-15T00:31:03;99533.03;;;26.10
64624;BMP280;51031;50.912;9.242;2022-07-15T00:31:19;99532.19;;;26.09
64624;BMP280;51031;50.912;9.242;2022-07-15T00:31:36;99532.19;;;26.09
64624;BMP280;51031;50.912;9.242;2022-07-15T00:31:53;99536.72;;;26.09
64624;BMP280;51031;50.912;9.242;2022-07-15T00:32:09;99528.81;;;26.07
64624;BMP280;51031;50.912;9.242;2022-07-15T00:32:24;99536.88;;;26.07
64624;BMP280;51031;50.912;9.242;2022-07-15T00:32:40;99531.66;;;26.06
64624;BMP280;51031;50.912;9.242;2022-07-15T00:32:57;99532.47;;;26.06
64624;BMP280;51031;50.912;9.242;2022-07-15T00:33:13;99537.03;;;26.06
64624;BMP280;51031;50.912;9.242;2022-07-15T00:33:29;99528.97;;;26.06
64624;BMP280;51031;50.912;9.242;2022-07-15T00:33:45;99533.50;;;26.05
64624;BMP280;51031;50.912;9.242;2022-07-15T00:34:01;99536.19;;;26.05
64624;BMP280;51031;50.912;9.242;2022-07-15T00:34:16;99536.19;;;26.05
64624;BMP280;51031;50.912;9.242;2022-07-15T00:34:34;99529.97;;;26.05
64624;BMP280;51031;50.912;9.242;2022-07-15T00:34:51;99523.78;;;26.04
64624;BMP280;51031;50.912;9.242;2022-07-15T00:35:07;99530.16;;;26.03
64624;BMP280;51031;50.912;9.242;2022-07-15T00:35:23;99527.47;;;26.03
64624;BMP280;51031;50.912;9.242;2022-07-15T00:35:41;99532.16;;;26.01
64624;BMP280;51031;50.912;9.242;2022-07-15T00:35:58;99531.13;;;26.02
64624;BMP280;51031;50.912;9.242;2022-07-15T00:36:13;99531.31;;;26.01
64624;BMP280;51031;50.912;9.242;2022-07-15T00:36:29;99536.84;;;25.99
64624;BMP280;51031;50.912;9.242;2022-07-15T00:36:45;99533.50;;;25.97
64624;BMP280;51031;50.912;9.242;2022-07-15T00:37:02;99523.75;;;25.96
64624;BMP280;51031;50.912;9.242;2022-07-15T00:37:20;99529.13;;;25.96
64624;BMP280;51031;50.912;9.242;2022-07-15T00:37:37;99530.13;;;25.95
64624;BMP280;51031;50.912;9.242;2022-07-15T00:37:53;99532.81;;;25.95
64624;BMP280;51031;50.912;9.242;2022-07-15T00:38:09;99533.81;;;25.94
64624;BMP280;51031;50.912;9.242;2022-07-15T00:38:25;99533.81;;;25.94
64624;BMP280;51031;50.912;9.242;2022-07-15T00:38:41;99533.00;;;25.94
64624;BMP280;51031;50.912;9.242;2022-07-15T00:38:57;99539.19;;;25.94
64624;BMP280;51031;50.912;9.242;2022-07-15T00:39:14;99536.50;;;25.94
64624;BMP280;51031;50.912;9.242;2022-07-15T00:39:30;99536.50;;;25.94
64624;BMP280;51031;50.912;9.242;2022-07-15T00:39:46;99529.28;;;25.95
64624;BMP280;51031;50.912;9.242;2022-07-15T00:40:06;99534.66;;;25.95
64624;BMP280;51031;50.912;9.242;2022-07-15T00:40:24;99539.19;;;25.94
64624;BMP280;51031;50.912;9.242;2022-07-15T00:40:42;99533.81;;;25.94
64624;BMP280;51031;50.912;9.242;2022-07-15T00:40:58;99532.81;;;25.95
64624;BMP280;51031;50.912;9.242;2022-07-15T00:41:14;99530.13;;;25.95
64624;BMP280;51031;50.912;9.242;2022-07-15T00:41:35;99532.81;;;25.95
64624;BMP280;51031;50.912;9.242;2022-07-15T00:41:51;99537.16;;;25.96
64624;BMP280;51031;50.912;9.242;2022-07-15T00:42:07;99537.16;;;25.96
64624;BMP280;51031;50.912;9.242;2022-07-15T00:42:24;99537.16;;;25.96
64624;BMP280;51031;50.912;9.242;2022-07-15T00:42:58;99531.78;;;25.96
64624;BMP280;51031;50.912;9.242;2022-07-15T00:43:15;99536.84;;;25.91
64624;BMP280;51031;50.912;9.242;2022-07-15T00:43:31;99536.16;;;25.89
64624;BMP280;51031;50.912;9.242;2022-07-15T00:43:47;99525.59;;;25.88
64624;BMP280;51031;50.912;9.242;2022-07-15T00:44:04;99534.50;;;25.88
64624;BMP280;51031;50.912;9.242;2022-07-15T00:44:20;99530.97;;;25.88
64624;BMP280;51031;50.912;9.242;2022-07-15T00:44:36;99537.16;;;25.88
64624;BMP280;51031;50.912;9.242;2022-07-15T00:44:53;99534.50;;;25.88
64624;BMP280;51031;50.912;9.242;2022-07-15T00:45:09;99538.00;;;25.89
64624;BMP280;51031;50.912;9.242;2022-07-15T00:45:25;99530.13;;;25.88
64624;BMP280;51031;50.912;9.242;2022-07-15T00:45:44;99531.78;;;25.88
64624;BMP280;51031;50.912;9.242;2022-07-15T00:46:00;99529.94;;;25.89
64624;BMP280;51031;50.912;9.242;2022-07-15T00:46:17;99530.78;;;25.89
64624;BMP280;51031;50.912;9.242;2022-07-15T00:46:34;99534.16;;;25.91
64624;BMP280;51031;50.912;9.242;2022-07-15T00:46:51;99534.16;;;25.91
64624;BMP280;51031;50.912;9.242;2022-07-15T00:47:07;99528.78;;;25.91
64624;BMP280;51031;50.912;9.242;2022-07-15T00:47:26;99535.81;;;25.92
64624;BMP280;51031;50.912;9.242;2022-07-15T00:47:44;99534.84;;;25.93
64624;BMP280;51031;50.912;9.242;2022-07-15T00:48:00;99533.00;;;25.94
64624;BMP280;51031;50.912;9.242;2022-07-15T00:48:16;99531.97;;;25.95
64624;BMP280;51031;50.912;9.242;2022-07-15T00:48:32;99533.00;;;25.94
64624;BMP280;51031;50.912;9.242;2022-07-15T00:48:49;99532.16;;;25.93
64624;BMP280;51031;50.912;9.242;2022-07-15T00:49:07;99531.16;;;25.94
64624;BMP280;51031;50.912;9.242;2022-07-15T00:49:23;99539.19;;;25.94
64624;BMP280;51031;50.912;9.242;2022-07-15T00:49:40;99532.16;;;25.93
64624;BMP280;51031;50.912;9.242;2022-07-15T00:49:56;99530.31;;;25.94
64624;BMP280;51031;50.912;9.242;2022-07-15T00:50:12;99533.00;;;25.94
64624;BMP280;51031;50.912;9.242;2022-07-15T00:50:30;99536.50;;;25.94
64624;BMP280;51031;50.912;9.242;2022-07-15T00:50:46;99525.78;;;25.94
64624;BMP280;51031;50.912;9.242;2022-07-15T00:51:03;99528.47;;;25.94
64624;BMP280;51031;50.912;9.242;2022-07-15T00:51:18;99533.81;;;25.94
64624;BMP280;51031;50.912;9.242;2022-07-15T00:51:36;99534.66;;;25.95
64624;BMP280;51031;50.912;9.242;2022-07-15T00:51:55;99530.13;;;25.95
64624;BMP280;51031;50.912;9.242;2022-07-15T00:52:12;99533.81;;;25.94
64624;BMP280;51031;50.912;9.242;2022-07-15T00:52:28;99532.81;;;25.95
64624;BMP280;51031;50.912;9.242;2022-07-15T00:52:50;99528.47;;;25.94
64624;BMP280;51031;50.912;9.242;2022-07-15T00:53:13;99528.47;;;25.94
64624;BMP280;51031;50.912;9.242;2022-07-15T00:53:33;99528.47;;;25.94
64624;BMP280;51031;50.912;9.242;2022-07-15T00:53:52;99532.16;;;25.93
64624;BMP280;51031;50.912;9.242;2022-07-15T00:54:09;99534.84;;;25.93
64624;BMP280;51031;50.912;9.242;2022-07-15T00:54:26;99527.78;;;25.92
64624;BMP280;51031;50.912;9.242;2022-07-15T00:54:43;99530.47;;;25.92
64624;BMP280;51031;50.912;9.242;2022-07-15T00:55:01;99529.13;;;25.88
64624;BMP280;51031;50.912;9.242;2022-07-15T00:55:22;99525.78;;;25.87
64624;BMP280;51031;50.912;9.242;2022-07-15T00:55:41;99524.91;;;25.86
64624;BMP280;51031;50.912;9.242;2022-07-15T00:55:59;99525.09;;;25.85
64624;BMP280;51031;50.912;9.242;2022-07-15T00:56:19;99533.13;;;25.85
64624;BMP280;51031;50.912;9.242;2022-07-15T00:56:41;99537.69;;;25.84
64624;BMP280;51031;50.912;9.242;2022-07-15T00:56:57;99531.47;;;25.84
64624;BMP280;51031;50.912;9.242;2022-07-15T00:57:16;99531.47;;;25.84
64624;BMP280;51031;50.912;9.242;2022-07-15T00:57:32;99528.78;;;25.84
64624;BMP280;51031;50.912;9.242;2022-07-15T00:57:52;99529.78;;;25.83
64624;BMP280;51031;50.912;9.242;2022-07-15T00:58:16;99526.09;;;25.84
64624;BMP280;51031;50.912;9.242;2022-07-15T00:58:36;99527.09;;;25.83
64624;BMP280;51031;50.912;9.242;2022-07-15T00:58:53;99532.44;;;25.83
64624;BMP280;51031;50.912;9.242;2022-07-15T00:59:10;99528.09;;;25.82
64624;BMP280;51031;50.912;9.242;2022-07-15T00:59:31;99531.63;;;25.82
64624;BMP280;51031;50.912;9.242;2022-07-15T00:59:48;99532.44;;;25.83
64624;BMP280;51031;50.912;9.242;2022-07-15T01:00:07;99530.63;;;25.83
64624;BMP280;51031;50.912;9.242;2022-07-15T01:00:24;99532.44;;;25.83
64624;BMP280;51031;50.912;9.242;2022-07-15T01:00:41;99530.63;;;25.83
64624;BMP280;51031;50.912;9.242;2022-07-15T01:01:01;99531.47;;;25.84
64624;BMP280;51031;50.912;9.242;2022-07-15T01:01:19;99530.63;;;25.83
64624;BMP280;51031;50.912;9.242;2022-07-15T01:01:35;99530.47;;;25.85
64624;BMP280;51031;50.912;9.242;2022-07-15T01:01:52;99538.50;;;25.85
64624;BMP280;51031;50.912;9.242;2022-07-15T01:02:08;99533.13;;;25.85
64624;BMP280;51031;50.912;9.242;2022-07-15T01:02:24;99534.81;;;25.86
64624;BMP280;51031;50.912;9.242;2022-07-15T01:02:42;99529.44;;;25.86
64624;BMP280;51031;50.912;9.242;2022-07-15T01:03:02;99531.28;;;25.85
64624;BMP280;51031;50.912;9.242;2022-07-15T01:03:19;99525.91;;;25.85
64624;BMP280;51031;50.912;9.242;2022-07-15T01:03:35;99529.44;;;25.86
64624;BMP280;51031;50.912;9.242;2022-07-15T01:03:51;99537.34;;;25.87
64624;BMP280;51031;50.912;9.242;2022-07-15T01:04:09;99528.47;;;25.87
64624;BMP280;51031;50.912;9.242;2022-07-15T01:04:27;99536.50;;;25.87
64624;BMP280;51031;50.912;9.242;2022-07-15T01:04:45;99533.81;;;25.87
64624;BMP280;51031;50.912;9.242;2022-07-15T01:05:04;99523.94;;;25.87
64624;BMP280;51031;50.912;9.242;2022-07-15T01:05:21;99533.66;;;25.88
64624;BMP280;51031;50.912;9.242;2022-07-15T01:05:37;99528.28;;;25.88
64624;BMP280;51031;50.912;9.242;2022-07-15T01:05:57;99533.66;;;25.88
64624;BMP280;51031;50.912;9.242;2022-07-15T01:06:13;99538.19;;;25.88
64624;BMP280;51031;50.912;9.242;2022-07-15T01:06:30;99526.59;;;25.87
64624;BMP280;51031;50.912;9.242;2022-07-15T01:06:49;99531.97;;;25.87
64624;BMP280;51031;50.912;9.242;2022-07-15T01:07:05;99539.19;;;25.87
64624;BMP280;51031;50.912;9.242;2022-07-15T01:07:21;99529.44;;;25.86
64624;BMP280;51031;50.912;9.242;2022-07-15T01:07:37;99534.81;;;25.86
64624;BMP280;51031;50.912;9.242;2022-07-15T01:07:53;99537.69;;;25.84
64624;BMP280;51031;50.912;9.242;2022-07-15T01:08:10;99542.22;;;25.84
64624;BMP280;51031;50.912;9.242;2022-07-15T01:08:26;99534.31;;;25.82
64624;BMP280;51031;50.912;9.242;2022-07-15T01:08:42;99531.47;;;25.84
64624;BMP280;51031;50.912;9.242;2022-07-15T01:08:58;99537.81;;;25.83
64624;BMP280;51031;50.912;9.242;2022-07-15T01:09:14;99538.84;;;25.82
64624;BMP280;51031;50.912;9.242;2022-07-15T01:09:31;99538.00;;;25.81
64624;BMP280;51031;50.912;9.242;2022-07-15T01:09:47;99534.47;;;25.81
64624;BMP280;51031;50.912;9.242;2022-07-15T01:10:03;99541.69;;;25.80
64624;BMP280;51031;50.912;9.242;2022-07-15T01:10:21;99540.88;;;25.80
64624;BMP280;51031;50.912;9.242;2022-07-15T01:10:39;99539.16;;;25.79
64624;BMP280;51031;50.912;9.242;2022-07-15T01:10:55;99533.78;;;25.79
64624;BMP280;51031;50.912;9.242;2022-07-15T01:11:12;99535.66;;;25.78
64624;BMP280;51031;50.912;9.242;2022-07-15T01:11:29;99539.16;;;25.79
64624;BMP280;51031;50.912;9.242;2022-07-15T01:11:47;99538.50;;;25.77
64624;BMP280;51031;50.912;9.242;2022-07-15T01:12:04;99535.81;;;25.77
64624;BMP280;51031;50.912;9.242;2022-07-15T01:12:20;99543.88;;;25.77
64624;BMP280;51031;50.912;9.242;2022-07-15T01:12:38;99535.81;;;25.77
64624;BMP280;51031;50.912;9.242;2022-07-15T01:12:56;99539.50;;;25.76
64624;BMP280;51031;50.912;9.242;2022-07-15T01:13:17;99540.34;;;25.76
64624;BMP280;51031;50.912;9.242;2022-07-15T01:13:34;99535.81;;;25.77
64624;BMP280;51031;50.912;9.242;2022-07-15T01:13:51;99536.81;;;25.76
64624;BMP280;51031;50.912;9.242;2022-07-15T01:14:08;99537.81;;;25.75
64624;BMP280;51031;50.912;9.242;2022-07-15T01:14:25;99535.00;;;25.76
64624;BMP280;51031;50.912;9.242;2022-07-15T01:14:41;99539.50;;;25.76
64624;BMP280;51031;50.912;9.242;2022-07-15T01:14:57;99539.50;;;25.76
64624;BMP280;51031;50.912;9.242;2022-07-15T01:15:14;99539.50;;;25.76
64624;BMP280;51031;50.912;9.242;2022-07-15T01:15:31;99541.19;;;25.77
64624;BMP280;51031;50.912;9.242;2022-07-15T01:15:49;99539.50;;;25.76
64624;BMP280;51031;50.912;9.242;2022-07-15T01:16:07;99539.50;;;25.76
64624;BMP280;51031;50.912;9.242;2022-07-15T01:16:24;99533.28;;;25.75
64624;BMP280;51031;50.912;9.242;2022-07-15T01:16:40;99535.81;;;25.77
64624;BMP280;51031;50.912;9.242;2022-07-15T01:16:56;99534.13;;;25.76
64624;BMP280;51031;50.912;9.242;2022-07-15T01:17:12;99543.88;;;25.77
64624;BMP280;51031;50.912;9.242;2022-07-15T01:17:31;99540.34;;;25.76
64624;BMP280;51031;50.912;9.242;2022-07-15T01:17:48;99538.50;;;25.77
64624;BMP280;51031;50.912;9.242;2022-07-15T01:18:04;99534.13;;;25.76
64624;BMP280;51031;50.912;9.242;2022-07-15T01:18:24;99541.19;;;25.77
64624;BMP280;51031;50.912;9.242;2022-07-15T01:18:40;99536.81;;;25.76
64624;BMP280;51031;50.912;9.242;2022-07-15T01:18:58;99534.13;;;25.76
64624;BMP280;51031;50.912;9.242;2022-07-15T01:19:21;99534.13;;;25.76
64624;BMP280;51031;50.912;9.242;2022-07-15T01:19:37;99538.66;;;25.75
64624;BMP280;51031;50.912;9.242;2022-07-15T01:19:55;99537.81;;;25.75
64624;BMP280;51031;50.912;9.242;2022-07-15T01:20:11;99538.84;;;25.74
64624;BMP280;51031;50.912;9.242;2022-07-15T01:20:40;99543.38;;;25.73
64624;BMP280;51031;50.912;9.242;2022-07-15T01:20:57;99537.16;;;25.73
64624;BMP280;51031;50.912;9.242;2022-07-15T01:21:13;99550.59;;;25.73
64624;BMP280;51031;50.912;9.242;2022-07-15T01:21:29;99533.63;;;25.72
64624;BMP280;51031;50.912;9.242;2022-07-15T01:21:47;99538.16;;;25.72
64624;BMP280;51031;50.912;9.242;2022-07-15T01:22:04;99544.34;;;25.72
64624;BMP280;51031;50.912;9.242;2022-07-15T01:22:23;99535.47;;;25.72
64624;BMP280;51031;50.912;9.242;2022-07-15T01:22:40;99541.84;;;25.71
64624;BMP280;51031;50.912;9.242;2022-07-15T01:22:56;99538.16;;;25.72
64624;BMP280;51031;50.912;9.242;2022-07-15T01:23:17;99540.00;;;25.71
64624;BMP280;51031;50.912;9.242;2022-07-15T01:23:44;99536.47;;;25.71
64624;BMP280;51031;50.912;9.242;2022-07-15T01:24:16;99536.47;;;25.71
64624;BMP280;51031;50.912;9.242;2022-07-15T01:24:50;99537.31;;;25.71
64624;BMP280;51031;50.912;9.242;2022-07-15T01:25:13;99544.53;;;25.71
64624;BMP280;51031;50.912;9.242;2022-07-15T01:25:30;99536.47;;;25.71
64624;BMP280;51031;50.912;9.242;2022-07-15T01:25:46;99542.69;;;25.71
64624;BMP280;51031;50.912;9.242;2022-07-15T01:26:03;99536.47;;;25.71
64624;BMP280;51031;50.912;9.242;2022-07-15T01:26:19;99546.19;;;25.72
64624;BMP280;51031;50.912;9.242;2022-07-15T01:26:35;99539.84;;;25.73
64624;BMP280;51031;50.912;9.242;2022-07-15T01:26:52;99543.50;;;25.72
64624;BMP280;51031;50.912;9.242;2022-07-15T01:27:11;99538.84;;;25.74
64624;BMP280;51031;50.912;9.242;2022-07-15T01:27:27;99541.50;;;25.74
64624;BMP280;51031;50.912;9.242;2022-07-15T01:27:44;99536.16;;;25.74
64624;BMP280;51031;50.912;9.242;2022-07-15T01:28:05;99530.78;;;25.74
64624;BMP280;51031;50.912;9.242;2022-07-15T01:28:22;99541.34;;;25.75
64624;BMP280;51031;50.912;9.242;2022-07-15T01:28:40;99539.50;;;25.76
64624;BMP280;51031;50.912;9.242;2022-07-15T01:28:57;99535.13;;;25.75
64624;BMP280;51031;50.912;9.242;2022-07-15T01:29:13;99540.34;;;25.76
64624;BMP280;51031;50.912;9.242;2022-07-15T01:29:30;99543.03;;;25.76
64624;BMP280;51031;50.912;9.242;2022-07-15T01:29:46;99541.19;;;25.77
64624;BMP280;51031;50.912;9.242;2022-07-15T01:30:05;99541.19;;;25.77
64624;BMP280;51031;50.912;9.242;2022-07-15T01:30:21;99542.88;;;25.78
64624;BMP280;51031;50.912;9.242;2022-07-15T01:30:37;99539.34;;;25.77
64624;BMP280;51031;50.912;9.242;2022-07-15T01:30:53;99540.19;;;25.78
64624;BMP280;51031;50.912;9.242;2022-07-15T01:31:11;99540.19;;;25.78
64624;BMP280;51031;50.912;9.242;2022-07-15T01:31:27;99543.69;;;25.78
64624;BMP280;51031;50.912;9.242;2022-07-15T01:31:43;99541.84;;;25.79
64624;BMP280;51031;50.912;9.242;2022-07-15T01:32:01;99539.16;;;25.79
64624;BMP280;51031;50.912;9.242;2022-07-15T01:32:17;99541.84;;;25.79
64624;BMP280;51031;50.912;9.242;2022-07-15T01:32:33;99547.91;;;25.81
64624;BMP280;51031;50.912;9.242;2022-07-15T01:32:50;99535.50;;;25.80
64624;BMP280;51031;50.912;9.242;2022-07-15T01:33:07;99534.47;;;25.81
64624;BMP280;51031;50.912;9.242;2022-07-15T01:33:23;99543.38;;;25.81
64624;BMP280;51031;50.912;9.242;2022-07-15T01:33:38;99540.69;;;25.81
64624;BMP280;51031;50.912;9.242;2022-07-15T01:33:54;99544.22;;;25.82
64624;BMP280;51031;50.912;9.242;2022-07-15T01:34:12;99538.84;;;25.82
64624;BMP280;51031;50.912;9.242;2022-07-15T01:34:28;99540.50;;;25.83
64624;BMP280;51031;50.912;9.242;2022-07-15T01:34:44;99542.34;;;25.82
64624;BMP280;51031;50.912;9.242;2022-07-15T01:35:05;99545.88;;;25.83
64624;BMP280;51031;50.912;9.242;2022-07-15T01:35:23;99540.50;;;25.83
64624;BMP280;51031;50.912;9.242;2022-07-15T01:35:42;99542.22;;;25.84
64624;BMP280;51031;50.912;9.242;2022-07-15T01:35:58;99542.22;;;25.84
64624;BMP280;51031;50.912;9.242;2022-07-15T01:36:16;99543.03;;;25.84
64624;BMP280;51031;50.912;9.242;2022-07-15T01:36:38;99547.59;;;25.84
64624;BMP280;51031;50.912;9.242;2022-07-15T01:36:54;99539.53;;;25.84
64624;BMP280;51031;50.912;9.242;2022-07-15T01:37:11;99538.50;;;25.85
64624;BMP280;51031;50.912;9.242;2022-07-15T01:37:31;99548.41;;;25.84
64624;BMP280;51031;50.912;9.242;2022-07-15T01:37:48;99547.41;;;25.85
64624;BMP280;51031;50.912;9.242;2022-07-15T01:38:04;99539.34;;;25.85
64624;BMP280;51031;50.912;9.242;2022-07-15T01:38:20;99542.88;;;25.86
64624;BMP280;51031;50.912;9.242;2022-07-15T01:38:43;99551.75;;;25.86
64624;BMP280;51031;50.912;9.242;2022-07-15T01:38:58;99538.50;;;25.85
64624;BMP280;51031;50.912;9.242;2022-07-15T01:39:14;99546.38;;;25.86
64624;BMP280;51031;50.912;9.242;2022-07-15T01:39:30;99544.72;;;25.85